KMYR

Myrtle Beach International Airport

Code ICAO KMYR
Code IATA MYR
Nom Myrtle Beach International Airport
Emplacement Myrtle Beach, South-Carolina, US
Élévation 25 pieds / 7.6 mètres
Latitude 33.67969894
Longitude -78.92829895
METAR KMYR 232256Z 34008KT 10SM CLR 24/15 A2993 RMK AO2 SLP135 T02390150
Informations extras Afficher cartes et CFS
Afficher NOTAMS
Piste Longueur Largeur Surface Élévation
18 9503 ft 150 ft ASP 22 ft
36 9503 ft 150 ft ASP 21 ft